Aviation Digital Data Service (ADDS)

Output produced by METARs form (0902 UTC 19 April 2019)
found at http://www.aviationweather.gov/metar/data/
 
METAR text: ZYTX 190830Z VRB01MPS CAVOK 19/M16 Q1015 NOSIG
Conditions at: ZYTX (SHENYANG/TAOKIAN, CN) observed 0830 UTC 19 April 2019
Temperature: 19.0°C (66°F)
Dewpoint: -16.0°C ( 3°F) [RH =  8%]
Pressure (altimeter): 29.97 inches Hg (1015.0 mb)
Winds: variable direction winds at 2 MPH (2 knots; 1.0 m/s)
Visibility: 6 or more miles (10+ km)
Ceiling: ceiling and visibility are OK
Clouds: unknown
Weather: no significant weather observed at this time

METAR text: ZYTX 190800Z 25003MPS 210V290 CAVOK 19/M15 Q1015 NOSIG
Conditions at: ZYTX (SHENYANG/TAOKIAN, CN) observed 0800 UTC 19 April 2019
Temperature: 19.0°C (66°F)
Dewpoint: -15.0°C ( 5°F) [RH =  9%]
Pressure (altimeter): 29.97 inches Hg (1015.0 mb)
Winds: from the WSW (250 degrees) at 7 MPH (6 knots; 3.1 m/s)
Visibility: 6 or more miles (10+ km)
Ceiling: ceiling and visibility are OK
Clouds: unknown
Weather: no significant weather observed at this time

METAR text: ZYTX 190730Z VRB02MPS CAVOK 18/M16 Q1015 NOSIG
Conditions at: ZYTX (SHENYANG/TAOKIAN, CN) observed 0730 UTC 19 April 2019
Temperature: 18.0°C (64°F)
Dewpoint: -16.0°C ( 3°F) [RH =  9%]
Pressure (altimeter): 29.97 inches Hg (1015.0 mb)
Winds: variable direction winds at 5 MPH (4 knots; 2.1 m/s)
Visibility: 6 or more miles (10+ km)
Ceiling: ceiling and visibility are OK
Clouds: unknown
Weather: no significant weather observed at this time

METAR text: ZYTX 190700Z VRB02MPS CAVOK 18/M15 Q1016 NOSIG
Conditions at: ZYTX (SHENYANG/TAOKIAN, CN) observed 0700 UTC 19 April 2019
Temperature: 18.0°C (64°F)
Dewpoint: -15.0°C ( 5°F) [RH =  9%]
Pressure (altimeter): 30.00 inches Hg (1016.0 mb)
Winds: variable direction winds at 5 MPH (4 knots; 2.1 m/s)
Visibility: 6 or more miles (10+ km)
Ceiling: ceiling and visibility are OK
Clouds: unknown
Weather: no significant weather observed at this time

METAR text: ZYTX 190630Z 32003MPS 280V010 CAVOK 18/M15 Q1016 NOSIG
Conditions at: ZYTX (SHENYANG/TAOKIAN, CN) observed 0630 UTC 19 April 2019
Temperature: 18.0°C (64°F)
Dewpoint: -15.0°C ( 5°F) [RH =  9%]
Pressure (altimeter): 30.00 inches Hg (1016.0 mb)
Winds: from the NW (320 degrees) at 7 MPH (6 knots; 3.1 m/s)
Visibility: 6 or more miles (10+ km)
Ceiling: ceiling and visibility are OK
Clouds: unknown
Weather: no significant weather observed at this time

METAR text: ZYTX 190600Z 28002MPS 200V360 CAVOK 18/M17 Q1017 NOSIG
Conditions at: ZYTX (SHENYANG/TAOKIAN, CN) observed 0600 UTC 19 April 2019
Temperature: 18.0°C (64°F)
Dewpoint: -17.0°C ( 1°F) [RH =  8%]
Pressure (altimeter): 30.03 inches Hg (1017.0 mb)
Winds: from the W (280 degrees) at 5 MPH (4 knots; 2.1 m/s)
Visibility: 6 or more miles (10+ km)
Ceiling: ceiling and visibility are OK
Clouds: unknown
Weather: no significant weather observed at this time

METAR text: ZYTX 190530Z VRB02MPS CAVOK 18/M15 Q1017 NOSIG
Conditions at: ZYTX (SHENYANG/TAOKIAN, CN) observed 0530 UTC 19 April 2019
Temperature: 18.0°C (64°F)
Dewpoint: -15.0°C ( 5°F) [RH =  9%]
Pressure (altimeter): 30.03 inches Hg (1017.0 mb)
Winds: variable direction winds at 5 MPH (4 knots; 2.1 m/s)
Visibility: 6 or more miles (10+ km)
Ceiling: ceiling and visibility are OK
Clouds: unknown
Weather: no significant weather observed at this time

METAR text: ZYTX 190500Z 01003MPS 310V110 CAVOK 18/M16 Q1018 NOSIG
Conditions at: ZYTX (SHENYANG/TAOKIAN, CN) observed 0500 UTC 19 April 2019
Temperature: 18.0°C (64°F)
Dewpoint: -16.0°C ( 3°F) [RH =  9%]
Pressure (altimeter): 30.06 inches Hg (1018.0 mb)
Winds: from the N (10 degrees) at 7 MPH (6 knots; 3.1 m/s)
Visibility: 6 or more miles (10+ km)
Ceiling: ceiling and visibility are OK
Clouds: unknown
Weather: no significant weather observed at this time

METAR text: ZYTX 190430Z 34002MPS 280V070 CAVOK 17/M13 Q1018 NOSIG
Conditions at: ZYTX (SHENYANG/TAOKIAN, CN) observed 0430 UTC 19 April 2019
Temperature: 17.0°C (63°F)
Dewpoint: -13.0°C ( 9°F) [RH = 12%]
Pressure (altimeter): 30.06 inches Hg (1018.0 mb)
Winds: from the NNW (340 degrees) at 5 MPH (4 knots; 2.1 m/s)
Visibility: 6 or more miles (10+ km)
Ceiling: ceiling and visibility are OK
Clouds: unknown
Weather: no significant weather observed at this time

METAR text: ZYTX 190400Z VRB01MPS CAVOK 17/M15 Q1019 NOSIG
Conditions at: ZYTX (SHENYANG/TAOKIAN, CN) observed 0400 UTC 19 April 2019
Temperature: 17.0°C (63°F)
Dewpoint: -15.0°C ( 5°F) [RH = 10%]
Pressure (altimeter): 30.09 inches Hg (1019.0 mb)
Winds: variable direction winds at 2 MPH (2 knots; 1.0 m/s)
Visibility: 6 or more miles (10+ km)
Ceiling: ceiling and visibility are OK
Clouds: unknown
Weather: no significant weather observed at this time

METAR text: ZYTX 190330Z 36002MPS 300V090 CAVOK 16/M13 Q1019 NOSIG
Conditions at: ZYTX (SHENYANG/TAOKIAN, CN) observed 0330 UTC 19 April 2019
Temperature: 16.0°C (61°F)
Dewpoint: -13.0°C ( 9°F) [RH = 12%]
Pressure (altimeter): 30.09 inches Hg (1019.0 mb)
Winds: from the N (360 degrees) at 5 MPH (4 knots; 2.1 m/s)
Visibility: 6 or more miles (10+ km)
Ceiling: ceiling and visibility are OK
Clouds: unknown
Weather: no significant weather observed at this time

METAR text: ZYTX 190300Z VRB01MPS CAVOK 16/M13 Q1020 NOSIG
Conditions at: ZYTX (SHENYANG/TAOKIAN, CN) observed 0300 UTC 19 April 2019
Temperature: 16.0°C (61°F)
Dewpoint: -13.0°C ( 9°F) [RH = 12%]
Pressure (altimeter): 30.12 inches Hg (1020.0 mb)
Winds: variable direction winds at 2 MPH (2 knots; 1.0 m/s)
Visibility: 6 or more miles (10+ km)
Ceiling: ceiling and visibility are OK
Clouds: unknown
Weather: no significant weather observed at this time

METAR text: ZYTX 190230Z 18002MPS 080V210 CAVOK 16/M14 Q1020 NOSIG
Conditions at: ZYTX (SHENYANG/TAOKIAN, CN) observed 0230 UTC 19 April 2019
Temperature: 16.0°C (61°F)
Dewpoint: -14.0°C ( 7°F) [RH = 11%]
Pressure (altimeter): 30.12 inches Hg (1020.0 mb)
Winds: from the S (180 degrees) at 5 MPH (4 knots; 2.1 m/s)
Visibility: 6 or more miles (10+ km)
Ceiling: ceiling and visibility are OK
Clouds: unknown
Weather: no significant weather observed at this time

METAR text: ZYTX 190200Z 04003MPS 360V070 CAVOK 14/M15 Q1020 NOSIG
Conditions at: ZYTX (SHENYANG/TAOKIAN, CN) observed 0200 UTC 19 April 2019
Temperature: 14.0°C (57°F)
Dewpoint: -15.0°C ( 5°F) [RH = 12%]
Pressure (altimeter): 30.12 inches Hg (1020.0 mb)
Winds: from the NE (40 degrees) at 7 MPH (6 knots; 3.1 m/s)
Visibility: 6 or more miles (10+ km)
Ceiling: ceiling and visibility are OK
Clouds: unknown
Weather: no significant weather observed at this time

METAR text: ZYTX 190130Z VRB02MPS CAVOK 13/M15 Q1020 NOSIG
Conditions at: ZYTX (SHENYANG/TAOKIAN, CN) observed 0130 UTC 19 April 2019
Temperature: 13.0°C (55°F)
Dewpoint: -15.0°C ( 5°F) [RH = 13%]
Pressure (altimeter): 30.12 inches Hg (1020.0 mb)
Winds: variable direction winds at 5 MPH (4 knots; 2.1 m/s)
Visibility: 6 or more miles (10+ km)
Ceiling: ceiling and visibility are OK
Clouds: unknown
Weather: no significant weather observed at this time

METAR text: ZYTX 190100Z VRB02MPS CAVOK 13/M14 Q1020 NOSIG
Conditions at: ZYTX (SHENYANG/TAOKIAN, CN) observed 0100 UTC 19 April 2019
Temperature: 13.0°C (55°F)
Dewpoint: -14.0°C ( 7°F) [RH = 14%]
Pressure (altimeter): 30.12 inches Hg (1020.0 mb)
Winds: variable direction winds at 5 MPH (4 knots; 2.1 m/s)
Visibility: 6 or more miles (10+ km)
Ceiling: ceiling and visibility are OK
Clouds: unknown
Weather: no significant weather observed at this time

METAR text: ZYTX 190030Z 10002MPS 080V140 CAVOK 12/M13 Q1020 NOSIG
Conditions at: ZYTX (SHENYANG/TAOKIAN, CN) observed 0030 UTC 19 April 2019
Temperature: 12.0°C (54°F)
Dewpoint: -13.0°C ( 9°F) [RH = 16%]
Pressure (altimeter): 30.12 inches Hg (1020.0 mb)
Winds: from the E (100 degrees) at 5 MPH (4 knots; 2.1 m/s)
Visibility: 6 or more miles (10+ km)
Ceiling: ceiling and visibility are OK
Clouds: unknown
Weather: no significant weather observed at this time

METAR text: ZYTX 190000Z 11002MPS 090V150 CAVOK 10/M12 Q1020 NOSIG
Conditions at: ZYTX (SHENYANG/TAOKIAN, CN) observed 0000 UTC 19 April 2019
Temperature: 10.0°C (50°F)
Dewpoint: -12.0°C (10°F) [RH = 20%]
Pressure (altimeter): 30.12 inches Hg (1020.0 mb)
Winds: from the ESE (110 degrees) at 5 MPH (4 knots; 2.1 m/s)
Visibility: 6 or more miles (10+ km)
Ceiling: ceiling and visibility are OK
Clouds: unknown
Weather: no significant weather observed at this time

METAR text: ZYTX 182330Z 10002MPS 080V150 CAVOK 08/M12 Q1021 NOSIG
Conditions at: ZYTX (SHENYANG/TAOKIAN, CN) observed 2330 UTC 18 April 2019
Temperature: 8.0°C (46°F)
Dewpoint: -12.0°C (10°F) [RH = 23%]
Pressure (altimeter): 30.15 inches Hg (1021.0 mb)
Winds: from the E (100 degrees) at 5 MPH (4 knots; 2.1 m/s)
Visibility: 6 or more miles (10+ km)
Ceiling: ceiling and visibility are OK
Clouds: unknown
Weather: no significant weather observed at this time

METAR text: ZYTX 182300Z 09002MPS CAVOK 07/M12 Q1021 NOSIG
Conditions at: ZYTX (SHENYANG/TAOKIAN, CN) observed 2300 UTC 18 April 2019
Temperature: 7.0°C (45°F)
Dewpoint: -12.0°C (10°F) [RH = 24%]
Pressure (altimeter): 30.15 inches Hg (1021.0 mb)
Winds: from the E (90 degrees) at 5 MPH (4 knots; 2.1 m/s)
Visibility: 6 or more miles (10+ km)
Ceiling: ceiling and visibility are OK
Clouds: unknown
Weather: no significant weather observed at this time

METAR text: ZYTX 182230Z VRB01MPS CAVOK 05/M10 Q1021 NOSIG
Conditions at: ZYTX (SHENYANG/TAOKIAN, CN) observed 2230 UTC 18 April 2019
Temperature: 5.0°C (41°F)
Dewpoint: -10.0°C (14°F) [RH = 33%]
Pressure (altimeter): 30.15 inches Hg (1021.0 mb)
Winds: variable direction winds at 2 MPH (2 knots; 1.0 m/s)
Visibility: 6 or more miles (10+ km)
Ceiling: ceiling and visibility are OK
Clouds: unknown
Weather: no significant weather observed at this time

METAR text: ZYTX 182200Z VRB01MPS CAVOK 03/M09 Q1020 NOSIG
Conditions at: ZYTX (SHENYANG/TAOKIAN, CN) observed 2200 UTC 18 April 2019
Temperature: 3.0°C (37°F)
Dewpoint: -9.0°C (16°F) [RH = 41%]
Pressure (altimeter): 30.12 inches Hg (1020.0 mb)
Winds: variable direction winds at 2 MPH (2 knots; 1.0 m/s)
Visibility: 6 or more miles (10+ km)
Ceiling: ceiling and visibility are OK
Clouds: unknown
Weather: no significant weather observed at this time

METAR text: ZYTX 182130Z VRB01MPS CAVOK 03/M09 Q1020 NOSIG
Conditions at: ZYTX (SHENYANG/TAOKIAN, CN) observed 2130 UTC 18 April 2019
Temperature: 3.0°C (37°F)
Dewpoint: -9.0°C (16°F) [RH = 41%]
Pressure (altimeter): 30.12 inches Hg (1020.0 mb)
Winds: variable direction winds at 2 MPH (2 knots; 1.0 m/s)
Visibility: 6 or more miles (10+ km)
Ceiling: ceiling and visibility are OK
Clouds: unknown
Weather: no significant weather observed at this time

METAR text: ZYTX 182100Z VRB01MPS CAVOK 02/M10 Q1020 NOSIG
Conditions at: ZYTX (SHENYANG/TAOKIAN, CN) observed 2100 UTC 18 April 2019
Temperature: 2.0°C (36°F)
Dewpoint: -10.0°C (14°F) [RH = 41%]
Pressure (altimeter): 30.12 inches Hg (1020.0 mb)
Winds: variable direction winds at 2 MPH (2 knots; 1.0 m/s)
Visibility: 6 or more miles (10+ km)
Ceiling: ceiling and visibility are OK
Clouds: unknown
Weather: no significant weather observed at this time

METAR text: ZYTX 182030Z 00000MPS CAVOK 02/M10 Q1020 NOSIG
Conditions at: ZYTX (SHENYANG/TAOKIAN, CN) observed 2030 UTC 18 April 2019
Temperature: 2.0°C (36°F)
Dewpoint: -10.0°C (14°F) [RH = 41%]
Pressure (altimeter): 30.12 inches Hg (1020.0 mb)
Winds: calm
Visibility: 6 or more miles (10+ km)
Ceiling: ceiling and visibility are OK
Clouds: unknown
Weather: no significant weather observed at this time

METAR text: ZYTX 182000Z 04002MPS CAVOK 03/M10 Q1020 NOSIG
Conditions at: ZYTX (SHENYANG/TAOKIAN, CN) observed 2000 UTC 18 April 2019
Temperature: 3.0°C (37°F)
Dewpoint: -10.0°C (14°F) [RH = 38%]
Pressure (altimeter): 30.12 inches Hg (1020.0 mb)
Winds: from the NE (40 degrees) at 5 MPH (4 knots; 2.1 m/s)
Visibility: 6 or more miles (10+ km)
Ceiling: ceiling and visibility are OK
Clouds: unknown
Weather: no significant weather observed at this time

METAR text: ZYTX 181930Z VRB01MPS CAVOK 03/M10 Q1020 NOSIG
Conditions at: ZYTX (SHENYANG/TAOKIAN, CN) observed 1930 UTC 18 April 2019
Temperature: 3.0°C (37°F)
Dewpoint: -10.0°C (14°F) [RH = 38%]
Pressure (altimeter): 30.12 inches Hg (1020.0 mb)
Winds: variable direction winds at 2 MPH (2 knots; 1.0 m/s)
Visibility: 6 or more miles (10+ km)
Ceiling: ceiling and visibility are OK
Clouds: unknown
Weather: no significant weather observed at this time

METAR text: ZYTX 181900Z VRB01MPS CAVOK 03/M11 Q1020 NOSIG
Conditions at: ZYTX (SHENYANG/TAOKIAN, CN) observed 1900 UTC 18 April 2019
Temperature: 3.0°C (37°F)
Dewpoint: -11.0°C (12°F) [RH = 35%]
Pressure (altimeter): 30.12 inches Hg (1020.0 mb)
Winds: variable direction winds at 2 MPH (2 knots; 1.0 m/s)
Visibility: 6 or more miles (10+ km)
Ceiling: ceiling and visibility are OK
Clouds: unknown
Weather: no significant weather observed at this time

METAR text: ZYTX 181830Z VRB01MPS CAVOK 03/M11 Q1019 NOSIG
Conditions at: ZYTX (SHENYANG/TAOKIAN, CN) observed 1830 UTC 18 April 2019
Temperature: 3.0°C (37°F)
Dewpoint: -11.0°C (12°F) [RH = 35%]
Pressure (altimeter): 30.09 inches Hg (1019.0 mb)
Winds: variable direction winds at 2 MPH (2 knots; 1.0 m/s)
Visibility: 6 or more miles (10+ km)
Ceiling: ceiling and visibility are OK
Clouds: unknown
Weather: no significant weather observed at this time

METAR text: ZYTX 181800Z 14002MPS 120V190 CAVOK 02/M11 Q1019 NOSIG
Conditions at: ZYTX (SHENYANG/TAOKIAN, CN) observed 1800 UTC 18 April 2019
Temperature: 2.0°C (36°F)
Dewpoint: -11.0°C (12°F) [RH = 37%]
Pressure (altimeter): 30.09 inches Hg (1019.0 mb)
Winds: from the SE (140 degrees) at 5 MPH (4 knots; 2.1 m/s)
Visibility: 6 or more miles (10+ km)
Ceiling: ceiling and visibility are OK
Clouds: unknown
Weather: no significant weather observed at this time

METAR text: ZYTX 181730Z VRB01MPS CAVOK 03/M11 Q1019 NOSIG
Conditions at: ZYTX (SHENYANG/TAOKIAN, CN) observed 1730 UTC 18 April 2019
Temperature: 3.0°C (37°F)
Dewpoint: -11.0°C (12°F) [RH = 35%]
Pressure (altimeter): 30.09 inches Hg (1019.0 mb)
Winds: variable direction winds at 2 MPH (2 knots; 1.0 m/s)
Visibility: 6 or more miles (10+ km)
Ceiling: ceiling and visibility are OK
Clouds: unknown
Weather: no significant weather observed at this time

METAR text: ZYTX 181700Z 00000MPS CAVOK 02/M12 Q1019 NOSIG
Conditions at: ZYTX (SHENYANG/TAOKIAN, CN) observed 1700 UTC 18 April 2019
Temperature: 2.0°C (36°F)
Dewpoint: -12.0°C (10°F) [RH = 35%]
Pressure (altimeter): 30.09 inches Hg (1019.0 mb)
Winds: calm
Visibility: 6 or more miles (10+ km)
Ceiling: ceiling and visibility are OK
Clouds: unknown
Weather: no significant weather observed at this time

METAR text: ZYTX 181630Z VRB01MPS CAVOK 03/M12 Q1019 NOSIG
Conditions at: ZYTX (SHENYANG/TAOKIAN, CN) observed 1630 UTC 18 April 2019
Temperature: 3.0°C (37°F)
Dewpoint: -12.0°C (10°F) [RH = 32%]
Pressure (altimeter): 30.09 inches Hg (1019.0 mb)
Winds: variable direction winds at 2 MPH (2 knots; 1.0 m/s)
Visibility: 6 or more miles (10+ km)
Ceiling: ceiling and visibility are OK
Clouds: unknown
Weather: no significant weather observed at this time

METAR text: ZYTX 181600Z 00000MPS CAVOK 02/M13 Q1019 NOSIG
Conditions at: ZYTX (SHENYANG/TAOKIAN, CN) observed 1600 UTC 18 April 2019
Temperature: 2.0°C (36°F)
Dewpoint: -13.0°C ( 9°F) [RH = 32%]
Pressure (altimeter): 30.09 inches Hg (1019.0 mb)
Winds: calm
Visibility: 6 or more miles (10+ km)
Ceiling: ceiling and visibility are OK
Clouds: unknown
Weather: no significant weather observed at this time

METAR text: ZYTX 181530Z VRB01MPS CAVOK 03/M13 Q1019 NOSIG
Conditions at: ZYTX (SHENYANG/TAOKIAN, CN) observed 1530 UTC 18 April 2019
Temperature: 3.0°C (37°F)
Dewpoint: -13.0°C ( 9°F) [RH = 30%]
Pressure (altimeter): 30.09 inches Hg (1019.0 mb)
Winds: variable direction winds at 2 MPH (2 knots; 1.0 m/s)
Visibility: 6 or more miles (10+ km)
Ceiling: ceiling and visibility are OK
Clouds: unknown
Weather: no significant weather observed at this time

METAR text: ZYTX 181500Z VRB01MPS CAVOK 03/M13 Q1019 NOSIG
Conditions at: ZYTX (SHENYANG/TAOKIAN, CN) observed 1500 UTC 18 April 2019
Temperature: 3.0°C (37°F)
Dewpoint: -13.0°C ( 9°F) [RH = 30%]
Pressure (altimeter): 30.09 inches Hg (1019.0 mb)
Winds: variable direction winds at 2 MPH (2 knots; 1.0 m/s)
Visibility: 6 or more miles (10+ km)
Ceiling: ceiling and visibility are OK
Clouds: unknown
Weather: no significant weather observed at this time

METAR text: ZYTX 181430Z VRB01MPS CAVOK 04/M14 Q1018 NOSIG
Conditions at: ZYTX (SHENYANG/TAOKIAN, CN) observed 1430 UTC 18 April 2019
Temperature: 4.0°C (39°F)
Dewpoint: -14.0°C ( 7°F) [RH = 25%]
Pressure (altimeter): 30.06 inches Hg (1018.0 mb)
Winds: variable direction winds at 2 MPH (2 knots; 1.0 m/s)
Visibility: 6 or more miles (10+ km)
Ceiling: ceiling and visibility are OK
Clouds: unknown
Weather: no significant weather observed at this time

METAR text: ZYTX 181400Z 06002MPS CAVOK 06/M15 Q1018 NOSIG
Conditions at: ZYTX (SHENYANG/TAOKIAN, CN) observed 1400 UTC 18 April 2019
Temperature: 6.0°C (43°F)
Dewpoint: -15.0°C ( 5°F) [RH = 20%]
Pressure (altimeter): 30.06 inches Hg (1018.0 mb)
Winds: from the ENE (60 degrees) at 5 MPH (4 knots; 2.1 m/s)
Visibility: 6 or more miles (10+ km)
Ceiling: ceiling and visibility are OK
Clouds: unknown
Weather: no significant weather observed at this time

METAR text: ZYTX 181330Z 06003MPS CAVOK 07/M15 Q1019 NOSIG
Conditions at: ZYTX (SHENYANG/TAOKIAN, CN) observed 1330 UTC 18 April 2019
Temperature: 7.0°C (45°F)
Dewpoint: -15.0°C ( 5°F) [RH = 19%]
Pressure (altimeter): 30.09 inches Hg (1019.0 mb)
Winds: from the ENE (60 degrees) at 7 MPH (6 knots; 3.1 m/s)
Visibility: 6 or more miles (10+ km)
Ceiling: ceiling and visibility are OK
Clouds: unknown
Weather: no significant weather observed at this time

METAR text: ZYTX 181300Z 03004MPS CAVOK 09/M15 Q1019 NOSIG
Conditions at: ZYTX (SHENYANG/TAOKIAN, CN) observed 1300 UTC 18 April 2019
Temperature: 9.0°C (48°F)
Dewpoint: -15.0°C ( 5°F) [RH = 17%]
Pressure (altimeter): 30.09 inches Hg (1019.0 mb)
Winds: from the NNE (30 degrees) at 9 MPH (8 knots; 4.1 m/s)
Visibility: 6 or more miles (10+ km)
Ceiling: ceiling and visibility are OK
Clouds: unknown
Weather: no significant weather observed at this time

METAR text: ZYTX 181230Z 03002MPS CAVOK 09/M16 Q1019 NOSIG
Conditions at: ZYTX (SHENYANG/TAOKIAN, CN) observed 1230 UTC 18 April 2019
Temperature: 9.0°C (48°F)
Dewpoint: -16.0°C ( 3°F) [RH = 15%]
Pressure (altimeter): 30.09 inches Hg (1019.0 mb)
Winds: from the NNE (30 degrees) at 5 MPH (4 knots; 2.1 m/s)
Visibility: 6 or more miles (10+ km)
Ceiling: ceiling and visibility are OK
Clouds: unknown
Weather: no significant weather observed at this time

METAR text: ZYTX 181200Z 02004MPS CAVOK 09/M15 Q1019 NOSIG
Conditions at: ZYTX (SHENYANG/TAOKIAN, CN) observed 1200 UTC 18 April 2019
Temperature: 9.0°C (48°F)
Dewpoint: -15.0°C ( 5°F) [RH = 17%]
Pressure (altimeter): 30.09 inches Hg (1019.0 mb)
Winds: from the NNE (20 degrees) at 9 MPH (8 knots; 4.1 m/s)
Visibility: 6 or more miles (10+ km)
Ceiling: ceiling and visibility are OK
Clouds: unknown
Weather: no significant weather observed at this time

METAR text: ZYTX 181130Z 02004MPS CAVOK 10/M16 Q1018 NOSIG
Conditions at: ZYTX (SHENYANG/TAOKIAN, CN) observed 1130 UTC 18 April 2019
Temperature: 10.0°C (50°F)
Dewpoint: -16.0°C ( 3°F) [RH = 14%]
Pressure (altimeter): 30.06 inches Hg (1018.0 mb)
Winds: from the NNE (20 degrees) at 9 MPH (8 knots; 4.1 m/s)
Visibility: 6 or more miles (10+ km)
Ceiling: ceiling and visibility are OK
Clouds: unknown
Weather: no significant weather observed at this time

METAR text: ZYTX 181100Z 03005MPS CAVOK 10/M15 Q1018 NOSIG
Conditions at: ZYTX (SHENYANG/TAOKIAN, CN) observed 1100 UTC 18 April 2019
Temperature: 10.0°C (50°F)
Dewpoint: -15.0°C ( 5°F) [RH = 16%]
Pressure (altimeter): 30.06 inches Hg (1018.0 mb)
Winds: from the NNE (30 degrees) at 12 MPH (10 knots; 5.1 m/s)
Visibility: 6 or more miles (10+ km)
Ceiling: ceiling and visibility are OK
Clouds: unknown
Weather: no significant weather observed at this time

METAR text: ZYTX 181030Z 02006MPS CAVOK 11/M16 Q1018 NOSIG
Conditions at: ZYTX (SHENYANG/TAOKIAN, CN) observed 1030 UTC 18 April 2019
Temperature: 11.0°C (52°F)
Dewpoint: -16.0°C ( 3°F) [RH = 13%]
Pressure (altimeter): 30.06 inches Hg (1018.0 mb)
Winds: from the NNE (20 degrees) at 14 MPH (12 knots; 6.2 m/s)
Visibility: 6 or more miles (10+ km)
Ceiling: ceiling and visibility are OK
Clouds: unknown
Weather: no significant weather observed at this time

METAR text: ZYTX 181000Z 01006MPS CAVOK 11/M15 Q1018 NOSIG
Conditions at: ZYTX (SHENYANG/TAOKIAN, CN) observed 1000 UTC 18 April 2019
Temperature: 11.0°C (52°F)
Dewpoint: -15.0°C ( 5°F) [RH = 15%]
Pressure (altimeter): 30.06 inches Hg (1018.0 mb)
Winds: from the N (10 degrees) at 14 MPH (12 knots; 6.2 m/s)
Visibility: 6 or more miles (10+ km)
Ceiling: ceiling and visibility are OK
Clouds: unknown
Weather: no significant weather observed at this time

METAR text: ZYTX 180930Z 01007MPS CAVOK 12/M15 Q1017 NOSIG
Conditions at: ZYTX (SHENYANG/TAOKIAN, CN) observed 0930 UTC 18 April 2019
Temperature: 12.0°C (54°F)
Dewpoint: -15.0°C ( 5°F) [RH = 14%]
Pressure (altimeter): 30.03 inches Hg (1017.0 mb)
Winds: from the N (10 degrees) at 16 MPH (14 knots; 7.2 m/s)
Visibility: 6 or more miles (10+ km)
Ceiling: ceiling and visibility are OK
Clouds: unknown
Weather: no significant weather observed at this time

METAR text: ZYTX 180900Z 02007MPS CAVOK 12/M14 Q1017 NOSIG
Conditions at: ZYTX (SHENYANG/TAOKIAN, CN) observed 0900 UTC 18 April 2019
Temperature: 12.0°C (54°F)
Dewpoint: -14.0°C ( 7°F) [RH = 15%]
Pressure (altimeter): 30.03 inches Hg (1017.0 mb)
Winds: from the NNE (20 degrees) at 16 MPH (14 knots; 7.2 m/s)
Visibility: 6 or more miles (10+ km)
Ceiling: ceiling and visibility are OK
Clouds: unknown
Weather: no significant weather observed at this time

METAR text: ZYTX 180830Z 01007MPS 340V050 CAVOK 13/M14 Q1017 NOSIG
Conditions at: ZYTX (SHENYANG/TAOKIAN, CN) observed 0830 UTC 18 April 2019
Temperature: 13.0°C (55°F)
Dewpoint: -14.0°C ( 7°F) [RH = 14%]
Pressure (altimeter): 30.03 inches Hg (1017.0 mb)
Winds: from the N (10 degrees) at 16 MPH (14 knots; 7.2 m/s)
Visibility: 6 or more miles (10+ km)
Ceiling: ceiling and visibility are OK
Clouds: unknown
Weather: no significant weather observed at this time

METAR text: ZYTX 180800Z 03009MPS CAVOK 13/M12 Q1017 NOSIG
Conditions at: ZYTX (SHENYANG/TAOKIAN, CN) observed 0800 UTC 18 April 2019
Temperature: 13.0°C (55°F)
Dewpoint: -12.0°C (10°F) [RH = 16%]
Pressure (altimeter): 30.03 inches Hg (1017.0 mb)
Winds: from the NNE (30 degrees) at 20 MPH (17 knots; 8.7 m/s)
Visibility: 6 or more miles (10+ km)
Ceiling: ceiling and visibility are OK
Clouds: unknown
Weather: no significant weather observed at this time

METAR text: ZYTX 180730Z 02009MPS CAVOK 13/M12 Q1017 NOSIG
Conditions at: ZYTX (SHENYANG/TAOKIAN, CN) observed 0730 UTC 18 April 2019
Temperature: 13.0°C (55°F)
Dewpoint: -12.0°C (10°F) [RH = 16%]
Pressure (altimeter): 30.03 inches Hg (1017.0 mb)
Winds: from the NNE (20 degrees) at 20 MPH (17 knots; 8.7 m/s)
Visibility: 6 or more miles (10+ km)
Ceiling: ceiling and visibility are OK
Clouds: unknown
Weather: no significant weather observed at this time

METAR text: ZYTX 180700Z 02008MPS 350V050 CAVOK 13/M11 Q1017 NOSIG
Conditions at: ZYTX (SHENYANG/TAOKIAN, CN) observed 0700 UTC 18 April 2019
Temperature: 13.0°C (55°F)
Dewpoint: -11.0°C (12°F) [RH = 18%]
Pressure (altimeter): 30.03 inches Hg (1017.0 mb)
Winds: from the NNE (20 degrees) at 18 MPH (16 knots; 8.2 m/s)
Visibility: 6 or more miles (10+ km)
Ceiling: ceiling and visibility are OK
Clouds: unknown
Weather: no significant weather observed at this time

METAR text: ZYTX 180630Z 35007MPS 330V040 CAVOK 13/M09 Q1017 NOSIG
Conditions at: ZYTX (SHENYANG/TAOKIAN, CN) observed 0630 UTC 18 April 2019
Temperature: 13.0°C (55°F)
Dewpoint: -9.0°C (16°F) [RH = 21%]
Pressure (altimeter): 30.03 inches Hg (1017.0 mb)
Winds: from the N (350 degrees) at 16 MPH (14 knots; 7.2 m/s)
Visibility: 6 or more miles (10+ km)
Ceiling: ceiling and visibility are OK
Clouds: unknown
Weather: no significant weather observed at this time

METAR text: ZYTX 180600Z 01006MPS 320V050 CAVOK 12/M09 Q1018 NOSIG
Conditions at: ZYTX (SHENYANG/TAOKIAN, CN) observed 0600 UTC 18 April 2019
Temperature: 12.0°C (54°F)
Dewpoint: -9.0°C (16°F) [RH = 22%]
Pressure (altimeter): 30.06 inches Hg (1018.0 mb)
Winds: from the N (10 degrees) at 14 MPH (12 knots; 6.2 m/s)
Visibility: 6 or more miles (10+ km)
Ceiling: ceiling and visibility are OK
Clouds: unknown
Weather: no significant weather observed at this time

METAR text: ZYTX 180530Z 01006MPS 340V040 CAVOK 12/M08 Q1018 NOSIG
Conditions at: ZYTX (SHENYANG/TAOKIAN, CN) observed 0530 UTC 18 April 2019
Temperature: 12.0°C (54°F)
Dewpoint: -8.0°C (18°F) [RH = 24%]
Pressure (altimeter): 30.06 inches Hg (1018.0 mb)
Winds: from the N (10 degrees) at 14 MPH (12 knots; 6.2 m/s)
Visibility: 6 or more miles (10+ km)
Ceiling: ceiling and visibility are OK
Clouds: unknown
Weather: no significant weather observed at this time

METAR text: ZYTX 180500Z 36006G11MPS 310V030 CAVOK 12/M07 Q1018 NOSIG
Conditions at: ZYTX (SHENYANG/TAOKIAN, CN) observed 0500 UTC 18 April 2019
Temperature: 12.0°C (54°F)
Dewpoint: -7.0°C (19°F) [RH = 26%]
Pressure (altimeter): 30.06 inches Hg (1018.0 mb)
Winds: from the N (360 degrees) at 14 MPH (12 knots; 6.2 m/s)
gusting to 24 MPH (21 knots; 10.8 m/s)
Visibility: 6 or more miles (10+ km)
Ceiling: ceiling and visibility are OK
Clouds: unknown
Weather: no significant weather observed at this time

METAR text: ZYTX 180430Z 36008MPS CAVOK 12/M06 Q1018 NOSIG
Conditions at: ZYTX (SHENYANG/TAOKIAN, CN) observed 0430 UTC 18 April 2019
Temperature: 12.0°C (54°F)
Dewpoint: -6.0°C (21°F) [RH = 28%]
Pressure (altimeter): 30.06 inches Hg (1018.0 mb)
Winds: from the N (360 degrees) at 18 MPH (16 knots; 8.2 m/s)
Visibility: 6 or more miles (10+ km)
Ceiling: ceiling and visibility are OK
Clouds: unknown
Weather: no significant weather observed at this time

METAR text: ZYTX 180400Z 36008MPS 320V020 CAVOK 11/M07 Q1018 NOSIG
Conditions at: ZYTX (SHENYANG/TAOKIAN, CN) observed 0400 UTC 18 April 2019
Temperature: 11.0°C (52°F)
Dewpoint: -7.0°C (19°F) [RH = 28%]
Pressure (altimeter): 30.06 inches Hg (1018.0 mb)
Winds: from the N (360 degrees) at 18 MPH (16 knots; 8.2 m/s)
Visibility: 6 or more miles (10+ km)
Ceiling: ceiling and visibility are OK
Clouds: unknown
Weather: no significant weather observed at this time

METAR text: ZYTX 180330Z 01008G13MPS 330V040 CAVOK 11/M06 Q1018 NOSIG
Conditions at: ZYTX (SHENYANG/TAOKIAN, CN) observed 0330 UTC 18 April 2019
Temperature: 11.0°C (52°F)
Dewpoint: -6.0°C (21°F) [RH = 30%]
Pressure (altimeter): 30.06 inches Hg (1018.0 mb)
Winds: from the N (10 degrees) at 18 MPH (16 knots; 8.2 m/s)
gusting to 29 MPH (25 knots; 12.9 m/s)
Visibility: 6 or more miles (10+ km)
Ceiling: ceiling and visibility are OK
Clouds: unknown
Weather: no significant weather observed at this time

METAR text: ZYTX 180300Z 02009G14MPS 350V050 CAVOK 11/M06 Q1018 NOSIG
Conditions at: ZYTX (SHENYANG/TAOKIAN, CN) observed 0300 UTC 18 April 2019
Temperature: 11.0°C (52°F)
Dewpoint: -6.0°C (21°F) [RH = 30%]
Pressure (altimeter): 30.06 inches Hg (1018.0 mb)
Winds: from the NNE (20 degrees) at 20 MPH (17 knots; 8.7 m/s)
gusting to 31 MPH (27 knots; 13.9 m/s)
Visibility: 6 or more miles (10+ km)
Ceiling: ceiling and visibility are OK
Clouds: unknown
Weather: no significant weather observed at this time

METAR text: ZYTX 180230Z 01008MPS 340V040 CAVOK 11/M06 Q1018 NOSIG
Conditions at: ZYTX (SHENYANG/TAOKIAN, CN) observed 0230 UTC 18 April 2019
Temperature: 11.0°C (52°F)
Dewpoint: -6.0°C (21°F) [RH = 30%]
Pressure (altimeter): 30.06 inches Hg (1018.0 mb)
Winds: from the N (10 degrees) at 18 MPH (16 knots; 8.2 m/s)
Visibility: 6 or more miles (10+ km)
Ceiling: ceiling and visibility are OK
Clouds: unknown
Weather: no significant weather observed at this time

METAR text: ZYTX 180200Z 01008MPS CAVOK 10/M06 Q1018 NOSIG
Conditions at: ZYTX (SHENYANG/TAOKIAN, CN) observed 0200 UTC 18 April 2019
Temperature: 10.0°C (50°F)
Dewpoint: -6.0°C (21°F) [RH = 32%]
Pressure (altimeter): 30.06 inches Hg (1018.0 mb)
Winds: from the N (10 degrees) at 18 MPH (16 knots; 8.2 m/s)
Visibility: 6 or more miles (10+ km)
Ceiling: ceiling and visibility are OK
Clouds: unknown
Weather: no significant weather observed at this time

METAR text: ZYTX 180130Z 03007MPS 350V050 CAVOK 09/M06 Q1018 NOSIG
Conditions at: ZYTX (SHENYANG/TAOKIAN, CN) observed 0130 UTC 18 April 2019
Temperature: 9.0°C (48°F)
Dewpoint: -6.0°C (21°F) [RH = 34%]
Pressure (altimeter): 30.06 inches Hg (1018.0 mb)
Winds: from the NNE (30 degrees) at 16 MPH (14 knots; 7.2 m/s)
Visibility: 6 or more miles (10+ km)
Ceiling: ceiling and visibility are OK
Clouds: unknown
Weather: no significant weather observed at this time

METAR text: ZYTX 180100Z 03007MPS 350V050 CAVOK 09/M05 Q1017 NOSIG
Conditions at: ZYTX (SHENYANG/TAOKIAN, CN) observed 0100 UTC 18 April 2019
Temperature: 9.0°C (48°F)
Dewpoint: -5.0°C (23°F) [RH = 37%]
Pressure (altimeter): 30.03 inches Hg (1017.0 mb)
Winds: from the NNE (30 degrees) at 16 MPH (14 knots; 7.2 m/s)
Visibility: 6 or more miles (10+ km)
Ceiling: ceiling and visibility are OK
Clouds: unknown
Weather: no significant weather observed at this time

METAR text: ZYTX 180030Z 02007MPS 350V050 CAVOK 08/M04 Q1017 NOSIG
Conditions at: ZYTX (SHENYANG/TAOKIAN, CN) observed 0030 UTC 18 April 2019
Temperature: 8.0°C (46°F)
Dewpoint: -4.0°C (25°F) [RH = 42%]
Pressure (altimeter): 30.03 inches Hg (1017.0 mb)
Winds: from the NNE (20 degrees) at 16 MPH (14 knots; 7.2 m/s)
Visibility: 6 or more miles (10+ km)
Ceiling: ceiling and visibility are OK
Clouds: unknown
Weather: no significant weather observed at this time

METAR text: ZYTX 180000Z 04007MPS CAVOK 08/M05 Q1016 NOSIG
Conditions at: ZYTX (SHENYANG/TAOKIAN, CN) observed 0000 UTC 18 April 2019
Temperature: 8.0°C (46°F)
Dewpoint: -5.0°C (23°F) [RH = 39%]
Pressure (altimeter): 30.00 inches Hg (1016.0 mb)
Winds: from the NE (40 degrees) at 16 MPH (14 knots; 7.2 m/s)
Visibility: 6 or more miles (10+ km)
Ceiling: ceiling and visibility are OK
Clouds: unknown
Weather: no significant weather observed at this time

METAR text: ZYTX 172330Z 03006MPS CAVOK 07/M04 Q1016 NOSIG
Conditions at: ZYTX (SHENYANG/TAOKIAN, CN) observed 2330 UTC 17 April 2019
Temperature: 7.0°C (45°F)
Dewpoint: -4.0°C (25°F) [RH = 45%]
Pressure (altimeter): 30.00 inches Hg (1016.0 mb)
Winds: from the NNE (30 degrees) at 14 MPH (12 knots; 6.2 m/s)
Visibility: 6 or more miles (10+ km)
Ceiling: ceiling and visibility are OK
Clouds: unknown
Weather: no significant weather observed at this time

METAR text: ZYTX 172300Z 02006MPS CAVOK 06/M04 Q1015 NOSIG
Conditions at: ZYTX (SHENYANG/TAOKIAN, CN) observed 2300 UTC 17 April 2019
Temperature: 6.0°C (43°F)
Dewpoint: -4.0°C (25°F) [RH = 49%]
Pressure (altimeter): 29.97 inches Hg (1015.0 mb)
Winds: from the NNE (20 degrees) at 14 MPH (12 knots; 6.2 m/s)
Visibility: 6 or more miles (10+ km)
Ceiling: ceiling and visibility are OK
Clouds: unknown
Weather: no significant weather observed at this time

METAR text: ZYTX 172230Z 02005MPS CAVOK 06/M03 Q1015 NOSIG
Conditions at: ZYTX (SHENYANG/TAOKIAN, CN) observed 2230 UTC 17 April 2019
Temperature: 6.0°C (43°F)
Dewpoint: -3.0°C (27°F) [RH = 52%]
Pressure (altimeter): 29.97 inches Hg (1015.0 mb)
Winds: from the NNE (20 degrees) at 12 MPH (10 knots; 5.1 m/s)
Visibility: 6 or more miles (10+ km)
Ceiling: ceiling and visibility are OK
Clouds: unknown
Weather: no significant weather observed at this time

METAR text: ZYTX 172200Z 01006MPS CAVOK 05/M04 Q1014 NOSIG
Conditions at: ZYTX (SHENYANG/TAOKIAN, CN) observed 2200 UTC 17 April 2019
Temperature: 5.0°C (41°F)
Dewpoint: -4.0°C (25°F) [RH = 52%]
Pressure (altimeter): 29.94 inches Hg (1014.0 mb)
Winds: from the N (10 degrees) at 14 MPH (12 knots; 6.2 m/s)
Visibility: 6 or more miles (10+ km)
Ceiling: ceiling and visibility are OK
Clouds: unknown
Weather: no significant weather observed at this time

METAR text: ZYTX 172130Z 02004MPS CAVOK 06/M03 Q1013 NOSIG
Conditions at: ZYTX (SHENYANG/TAOKIAN, CN) observed 2130 UTC 17 April 2019
Temperature: 6.0°C (43°F)
Dewpoint: -3.0°C (27°F) [RH = 52%]
Pressure (altimeter): 29.91 inches Hg (1013.0 mb)
Winds: from the NNE (20 degrees) at 9 MPH (8 knots; 4.1 m/s)
Visibility: 6 or more miles (10+ km)
Ceiling: ceiling and visibility are OK
Clouds: unknown
Weather: no significant weather observed at this time

Forecast for: ZYTX (SHENYANG/TAOKIAN, CN)
Text: TAF ZYTX 190113Z 1906/2006 21004MPS CAVOK TX18/1906Z TN06/1922Z
Forecast period: 0600 UTC 19 April 2019 to 0600 UTC 20 April 2019
Forecast type: FROM: standard forecast or significant change
Winds: from the SSW (210 degrees) at 9 MPH (8 knots; 4.1 m/s)
Visibility: 6 or more miles 10+ km)
Ceiling: unknown
Clouds: missing
Weather: no significant weather forecast for this period